Time;durP1;ratioP1;P1;durP2;ratioP2;P2;SDS_P1;SDS_P2;PMS_P1;PMS_P2;Temp;Humidity;BMP_temperature;BMP_pressure;BME280_temperature;BME280_humidity;BME280_pressure;Samples;Min_cycle;Max_cycle;Signal;HPM_P1;HPM_P2
2021/12/30 00:00:53;;;;;;;20.50;10.50;;;;;;;;;;5069598;28;20283;-61
2021/12/30 00:03:22;;;;;;;18.53;10.53;;;;;;;;;;5052644;28;20493;-61
2021/12/30 00:05:50;;;;;;;20.40;9.83;;;;;;;;;;5069759;28;20449;-61
2021/12/30 00:08:17;;;;;;;13.73;9.13;;;;;;;;;;5087003;28;20617;-61
2021/12/30 00:10:43;;;;;;;17.57;9.60;;;;;;;;;;5071051;28;20209;-61
2021/12/30 00:13:12;;;;;;;20.93;9.90;;;;;;;;;;5067130;28;20281;-61
2021/12/30 00:15:39;;;;;;;18.03;9.73;;;;;;;;;;5088133;28;20186;-61
2021/12/30 00:18:10;;;;;;;17.17;9.37;;;;;;;;;;5080063;28;20183;-61
2021/12/30 00:20:39;;;;;;;19.83;9.40;;;;;;;;;;5087366;28;20191;-61
2021/12/30 00:23:08;;;;;;;14.70;8.53;;;;;;;;;;5070207;28;20210;-61
2021/12/30 00:25:40;;;;;;;19.23;8.40;;;;;;;;;;5070153;28;20176;-61
2021/12/30 00:28:10;;;;;;;20.07;9.30;;;;;;;;;;5068169;28;20184;-61
2021/12/30 00:30:36;;;;;;;19.17;9.27;;;;;;;;;;5070113;28;20195;-61
2021/12/30 00:33:03;;;;;;;15.70;9.77;;;;;;;;;;5085742;28;20242;-61
2021/12/30 00:35:30;;;;;;;18.00;7.87;;;;;;;;;;5088127;28;20431;-60
2021/12/30 00:38:00;;;;;;;15.73;7.80;;;;;;;;;;5084464;28;20183;-61
2021/12/30 00:40:27;;;;;;;15.93;8.60;;;;;;;;;;5062881;28;20204;-60
2021/12/30 00:42:53;;;;;;;18.37;8.50;;;;;;;;;;5080009;28;20225;-61
2021/12/30 00:45:19;;;;;;;20.03;8.03;;;;;;;;;;5068195;28;20384;-61
2021/12/30 00:47:46;;;;;;;15.23;7.60;;;;;;;;;;5066758;28;20183;-60
2021/12/30 00:50:15;;;;;;;15.87;7.43;;;;;;;;;;5064287;28;20310;-60
2021/12/30 00:52:41;;;;;;;14.77;7.67;;;;;;;;;;5058817;28;20796;-60
2021/12/30 00:55:08;;;;;;;19.27;7.70;;;;;;;;;;5049384;28;20635;-60
2021/12/30 00:57:34;;;;;;;16.23;7.00;;;;;;;;;;5068784;28;20283;-60
2021/12/30 01:00:03;;;;;;;16.07;7.27;;;;;;;;;;5047709;28;20706;-61
2021/12/30 01:02:29;;;;;;;16.70;8.63;;;;;;;;;;5061891;28;20195;-60
2021/12/30 01:04:55;;;;;;;16.67;7.23;;;;;;;;;;5070844;28;20178;-60
2021/12/30 01:07:22;;;;;;;12.37;6.30;;;;;;;;;;5066747;28;20745;-60
2021/12/30 01:09:49;;;;;;;18.23;8.20;;;;;;;;;;5059999;28;20187;-60
2021/12/30 01:12:18;;;;;;;16.70;7.20;;;;;;;;;;5067844;28;20196;-60
2021/12/30 01:14:47;;;;;;;14.47;6.33;;;;;;;;;;5044702;28;20260;-60
2021/12/30 01:17:21;;;;;;;18.93;7.57;;;;;;;;;;5050782;28;20195;-60
2021/12/30 01:19:50;;;;;;;15.30;6.90;;;;;;;;;;5074749;28;20180;-61
2021/12/30 01:22:21;;;;;;;11.17;6.03;;;;;;;;;;5048228;28;20267;-61
2021/12/30 01:24:47;;;;;;;14.40;5.80;;;;;;;;;;5049181;28;20184;-61
2021/12/30 01:27:14;;;;;;;9.30;5.80;;;;;;;;;;5080321;28;20168;-61
2021/12/30 01:29:40;;;;;;;16.27;6.07;;;;;;;;;;5048111;28;20188;-60
2021/12/30 01:32:07;;;;;;;17.27;6.80;;;;;;;;;;5065487;28;20338;-61
2021/12/30 01:34:36;;;;;;;11.47;6.53;;;;;;;;;;5068766;28;20665;-60
2021/12/30 01:37:04;;;;;;;16.90;7.23;;;;;;;;;;5049845;28;20173;-61
2021/12/30 01:39:31;;;;;;;14.70;6.53;;;;;;;;;;5066270;28;20627;-61
2021/12/30 01:41:58;;;;;;;19.27;6.80;;;;;;;;;;5061827;28;20257;-61
2021/12/30 01:44:28;;;;;;;14.93;6.23;;;;;;;;;;5072582;28;20267;-60
2021/12/30 01:46:55;;;;;;;13.13;6.93;;;;;;;;;;5056412;28;20187;-61
2021/12/30 01:49:23;;;;;;;14.13;6.07;;;;;;;;;;5068871;28;20515;-60
2021/12/30 01:51:50;;;;;;;19.60;5.63;;;;;;;;;;5046920;28;20223;-61
2021/12/30 01:54:16;;;;;;;9.93;5.10;;;;;;;;;;5050448;28;20208;-61
2021/12/30 01:56:45;;;;;;;8.97;5.07;;;;;;;;;;5062149;28;20200;-61
2021/12/30 01:59:11;;;;;;;13.00;4.87;;;;;;;;;;5045078;28;20191;-60
2021/12/30 02:01:40;;;;;;;14.23;6.47;;;;;;;;;;5053157;28;20653;-60
2021/12/30 02:04:07;;;;;;;9.40;6.10;;;;;;;;;;5065415;28;20180;-61
2021/12/30 02:06:33;;;;;;;15.43;6.20;;;;;;;;;;5044209;28;20667;-61
2021/12/30 02:09:00;;;;;;;18.03;6.40;;;;;;;;;;5030087;28;20670;-61
2021/12/30 02:11:26;;;;;;;17.13;6.20;;;;;;;;;;5049812;28;20187;-61
2021/12/30 02:13:53;;;;;;;14.00;5.23;;;;;;;;;;5046045;28;20176;-59
2021/12/30 02:16:21;;;;;;;13.40;4.93;;;;;;;;;;5046804;28;20169;-59
2021/12/30 02:18:48;;;;;;;12.77;4.33;;;;;;;;;;5060220;28;20214;-60
2021/12/30 02:21:14;;;;;;;8.63;4.87;;;;;;;;;;5056448;28;20195;-59
2021/12/30 02:23:41;;;;;;;11.23;5.33;;;;;;;;;;5054863;28;20207;-60
2021/12/30 02:26:08;;;;;;;11.47;4.53;;;;;;;;;;5043843;28;20188;-60
2021/12/30 02:28:36;;;;;;;16.03;5.27;;;;;;;;;;5064738;28;20636;-60
2021/12/30 02:31:04;;;;;;;12.33;4.60;;;;;;;;;;5073939;28;20192;-60
2021/12/30 02:33:31;;;;;;;13.13;4.73;;;;;;;;;;5043840;28;20270;-60
2021/12/30 02:35:58;;;;;;;14.53;5.10;;;;;;;;;;5042201;28;20208;-60
2021/12/30 02:38:25;;;;;;;10.80;4.83;;;;;;;;;;5057514;28;20176;-60
2021/12/30 02:40:53;;;;;;;8.67;4.27;;;;;;;;;;5055119;28;20173;-59
2021/12/30 02:43:25;;;;;;;10.70;4.53;;;;;;;;;;5045759;28;20198;-59
2021/12/30 02:45:54;;;;;;;17.27;5.67;;;;;;;;;;5066259;28;20160;-60
2021/12/30 02:48:22;;;;;;;10.30;4.73;;;;;;;;;;5046843;28;20554;-59
2021/12/30 02:50:53;;;;;;;9.03;3.93;;;;;;;;;;5064480;28;20187;-60
2021/12/30 02:53:20;;;;;;;9.60;4.10;;;;;;;;;;5043569;28;20213;-60
2021/12/30 02:55:47;;;;;;;7.27;3.63;;;;;;;;;;5038702;28;20890;-60
2021/12/30 02:58:14;;;;;;;8.27;3.47;;;;;;;;;;5056381;28;20178;-60
2021/12/30 03:00:41;;;;;;;11.83;4.83;;;;;;;;;;5046719;28;20215;-60
2021/12/30 03:03:07;;;;;;;9.33;4.30;;;;;;;;;;5048987;28;20184;-60
2021/12/30 03:05:34;;;;;;;13.37;5.00;;;;;;;;;;5045338;28;20185;-60
2021/12/30 03:08:00;;;;;;;12.00;4.73;;;;;;;;;;5041988;28;20230;-60
2021/12/30 03:10:28;;;;;;;10.17;4.07;;;;;;;;;;5049914;28;20508;-59
2021/12/30 03:13:04;;;;;;;7.30;3.40;;;;;;;;;;5062412;28;20200;-60
2021/12/30 03:15:32;;;;;;;9.67;4.00;;;;;;;;;;5048627;28;20176;-60
2021/12/30 03:17:58;;;;;;;12.33;4.83;;;;;;;;;;5068135;28;20192;-60
2021/12/30 03:20:24;;;;;;;9.03;3.60;;;;;;;;;;5048802;28;20212;-60
2021/12/30 03:22:51;;;;;;;13.63;3.97;;;;;;;;;;5050713;28;20237;-60
2021/12/30 03:25:20;;;;;;;10.83;3.50;;;;;;;;;;5049469;28;20173;-60
2021/12/30 03:27:46;;;;;;;9.57;4.00;;;;;;;;;;5047389;28;20208;-60
2021/12/30 03:30:19;;;;;;;11.93;4.43;;;;;;;;;;5041738;28;20180;-60
2021/12/30 03:32:45;;;;;;;11.47;4.30;;;;;;;;;;5044478;28;20196;-60
2021/12/30 03:35:13;;;;;;;11.37;3.80;;;;;;;;;;5048480;28;20780;-60
2021/12/30 03:37:40;;;;;;;12.73;4.53;;;;;;;;;;5047497;28;20175;-60
2021/12/30 03:40:08;;;;;;;10.43;3.47;;;;;;;;;;5049724;28;20234;-60
2021/12/30 03:42:35;;;;;;;11.47;3.60;;;;;;;;;;5048875;28;20183;-60
2021/12/30 03:45:02;;;;;;;11.70;4.90;;;;;;;;;;5046463;28;20177;-60
2021/12/30 03:47:29;;;;;;;9.60;3.43;;;;;;;;;;5049395;28;20249;-60
2021/12/30 03:49:55;;;;;;;8.60;4.30;;;;;;;;;;5062399;28;20231;-60
2021/12/30 03:52:29;;;;;;;7.13;3.50;;;;;;;;;;5053620;28;20216;-60
2021/12/30 03:54:57;;;;;;;7.57;4.07;;;;;;;;;;5070324;28;20203;-60
2021/12/30 03:57:24;;;;;;;7.93;3.63;;;;;;;;;;5087509;28;20697;-59
2021/12/30 03:59:50;;;;;;;9.23;3.83;;;;;;;;;;5064744;28;20737;-60
2021/12/30 04:02:17;;;;;;;6.17;3.77;;;;;;;;;;5084255;28;20182;-60
2021/12/30 04:04:44;;;;;;;11.33;3.63;;;;;;;;;;5069447;28;20785;-60
2021/12/30 04:07:10;;;;;;;7.37;3.80;;;;;;;;;;5069035;28;20203;-60
2021/12/30 04:09:37;;;;;;;9.00;4.23;;;;;;;;;;5086663;28;20229;-60
2021/12/30 04:12:04;;;;;;;7.50;3.60;;;;;;;;;;5085464;28;20727;-60
2021/12/30 04:14:30;;;;;;;9.00;3.83;;;;;;;;;;5062129;28;20559;-60
2021/12/30 04:16:57;;;;;;;9.83;4.50;;;;;;;;;;5068776;28;20549;-60
2021/12/30 04:19:23;;;;;;;9.77;3.90;;;;;;;;;;5067493;28;20206;-60
2021/12/30 04:21:55;;;;;;;10.13;4.33;;;;;;;;;;5068285;28;20226;-60
2021/12/30 04:24:24;;;;;;;9.43;3.77;;;;;;;;;;5069781;28;20168;-60
2021/12/30 04:26:51;;;;;;;7.97;4.40;;;;;;;;;;5081082;28;20639;-60
2021/12/30 04:29:18;;;;;;;10.93;4.23;;;;;;;;;;5085213;28;20515;-59
2021/12/30 04:31:45;;;;;;;8.27;5.10;;;;;;;;;;5085420;28;20176;-60
2021/12/30 04:34:12;;;;;;;7.37;3.80;;;;;;;;;;5086693;28;20164;-59
2021/12/30 04:36:38;;;;;;;8.80;3.87;;;;;;;;;;5067209;28;20531;-60
2021/12/30 04:39:05;;;;;;;8.43;4.03;;;;;;;;;;5068746;28;20567;-60
2021/12/30 04:41:31;;;;;;;6.57;3.80;;;;;;;;;;5068540;28;20658;-59
2021/12/30 04:44:01;;;;;;;6.43;3.63;;;;;;;;;;5062558;28;20223;-58
2021/12/30 04:46:27;;;;;;;7.30;3.87;;;;;;;;;;5058328;28;20195;-60
2021/12/30 04:48:53;;;;;;;5.87;3.70;;;;;;;;;;5067568;28;20180;-61
2021/12/30 04:51:25;;;;;;;8.60;3.60;;;;;;;;;;5085259;28;20460;-60
2021/12/30 04:53:51;;;;;;;7.00;3.40;;;;;;;;;;5069083;28;20294;-61
2021/12/30 04:56:19;;;;;;;6.77;3.07;;;;;;;;;;5083000;28;20180;-59
2021/12/30 04:58:45;;;;;;;5.17;3.27;;;;;;;;;;5066490;28;20194;-59
2021/12/30 05:01:12;;;;;;;6.37;4.03;;;;;;;;;;5066252;28;20174;-58
2021/12/30 05:03:39;;;;;;;6.80;3.80;;;;;;;;;;5066656;28;20172;-62
2021/12/30 05:06:14;;;;;;;5.07;3.47;;;;;;;;;;5067940;28;20589;-60
2021/12/30 05:08:40;;;;;;;7.43;3.57;;;;;;;;;;5085493;28;20543;-60
2021/12/30 05:11:07;;;;;;;5.83;3.77;;;;;;;;;;5068835;28;20224;-60
2021/12/30 05:13:33;;;;;;;5.73;3.97;;;;;;;;;;5066772;28;20211;-60
2021/12/30 05:16:05;;;;;;;8.37;4.13;;;;;;;;;;5055963;28;20194;-61
2021/12/30 05:18:32;;;;;;;7.27;3.47;;;;;;;;;;5077947;28;20164;-60
2021/12/30 05:20:59;;;;;;;8.67;4.00;;;;;;;;;;5085582;28;20171;-59
2021/12/30 05:23:29;;;;;;;7.77;3.93;;;;;;;;;;5065766;28;20171;-61
2021/12/30 05:25:56;;;;;;;6.17;4.30;;;;;;;;;;5067160;28;20176;-60
2021/12/30 05:28:25;;;;;;;4.97;3.90;;;;;;;;;;5068458;28;20184;-60
2021/12/30 05:30:51;;;;;;;6.33;4.60;;;;;;;;;;5065743;28;20194;-61
2021/12/30 05:33:18;;;;;;;16.33;4.63;;;;;;;;;;5065938;28;20191;-61
2021/12/30 05:35:44;;;;;;;7.50;4.30;;;;;;;;;;5086202;28;20200;-61
2021/12/30 05:38:12;;;;;;;4.73;4.20;;;;;;;;;;5084453;28;20182;-60
2021/12/30 05:40:38;;;;;;;6.07;4.47;;;;;;;;;;5081805;28;20512;-60
2021/12/30 05:43:04;;;;;;;5.07;4.23;;;;;;;;;;5067130;28;20662;-61
2021/12/30 05:45:30;;;;;;;6.83;4.43;;;;;;;;;;5081052;28;20712;-61
2021/12/30 05:47:57;;;;;;;8.57;4.40;;;;;;;;;;5065890;28;20204;-61
2021/12/30 05:50:31;;;;;;;5.47;4.20;;;;;;;;;;5082233;28;20250;-61
2021/12/30 05:53:01;;;;;;;7.33;4.43;;;;;;;;;;5057773;28;20257;-61
2021/12/30 05:55:30;;;;;;;6.47;4.27;;;;;;;;;;5037451;28;20195;-61
2021/12/30 05:57:57;;;;;;;3.90;3.43;;;;;;;;;;5048471;28;20200;-61
2021/12/30 06:00:26;;;;;;;4.37;3.57;;;;;;;;;;5050352;28;20291;-60
2021/12/30 06:02:52;;;;;;;5.10;4.10;;;;;;;;;;5042497;28;20169;-61
2021/12/30 06:05:22;;;;;;;5.20;3.53;;;;;;;;;;5054598;28;20175;-61
2021/12/30 06:07:51;;;;;;;4.77;4.07;;;;;;;;;;5053771;28;20268;-61
2021/12/30 06:10:18;;;;;;;4.50;3.87;;;;;;;;;;5050807;28;20180;-61
2021/12/30 06:12:45;;;;;;;4.63;4.10;;;;;;;;;;5049331;28;20207;-61
2021/12/30 06:15:12;;;;;;;3.80;3.20;;;;;;;;;;5049487;28;20176;-61
2021/12/30 06:17:39;;;;;;;5.60;4.20;;;;;;;;;;5072669;28;20209;-61
2021/12/30 06:20:20;;;;;;;4.23;3.83;;;;;;;;;;5048517;28;20594;-61
2021/12/30 06:22:49;;;;;;;4.17;3.30;;;;;;;;;;5039190;28;20176;-61
2021/12/30 06:25:15;;;;;;;4.23;3.83;;;;;;;;;;5050482;28;20645;-61
2021/12/30 06:27:42;;;;;;;4.60;3.53;;;;;;;;;;5047735;28;20184;-61
2021/12/30 06:30:12;;;;;;;6.50;3.93;;;;;;;;;;5062489;28;20250;-61
2021/12/30 06:32:38;;;;;;;5.83;3.87;;;;;;;;;;5066383;28;20558;-61
2021/12/30 06:35:08;;;;;;;5.87;3.63;;;;;;;;;;5061049;28;20323;-61
2021/12/30 06:37:35;;;;;;;4.03;3.50;;;;;;;;;;5046035;28;20183;-61
2021/12/30 06:40:01;;;;;;;3.60;3.20;;;;;;;;;;5059423;28;20182;-66
2021/12/30 06:42:27;;;;;;;4.87;4.40;;;;;;;;;;5050786;28;20195;-61
2021/12/30 06:44:54;;;;;;;4.73;4.10;;;;;;;;;;5063431;28;20686;-61
2021/12/30 06:47:20;;;;;;;4.67;3.80;;;;;;;;;;5049925;28;20181;-61
2021/12/30 06:49:46;;;;;;;5.77;4.23;;;;;;;;;;5057057;28;20168;-61
2021/12/30 06:52:13;;;;;;;6.70;3.87;;;;;;;;;;5047998;28;20208;-61
2021/12/30 06:54:39;;;;;;;4.73;3.67;;;;;;;;;;5081976;28;20176;-61
2021/12/30 06:57:06;;;;;;;3.87;3.37;;;;;;;;;;5072062;28;20224;-61
2021/12/30 06:59:35;;;;;;;4.37;3.30;;;;;;;;;;5059644;28;20649;-61
2021/12/30 07:02:01;;;;;;;4.77;4.10;;;;;;;;;;5056216;28;20278;-61
2021/12/30 07:04:28;;;;;;;3.90;3.53;;;;;;;;;;5056250;28;20179;-61
2021/12/30 07:06:55;;;;;;;4.23;3.63;;;;;;;;;;5061300;28;20219;-60
2021/12/30 07:09:25;;;;;;;4.27;3.40;;;;;;;;;;5049418;28;20184;-60
2021/12/30 07:11:51;;;;;;;4.00;3.40;;;;;;;;;;5056126;28;20192;-61
2021/12/30 07:14:18;;;;;;;4.27;3.20;;;;;;;;;;5072988;28;20226;-61
2021/12/30 07:16:44;;;;;;;4.43;3.23;;;;;;;;;;5055418;28;20172;-61
2021/12/30 07:19:11;;;;;;;5.50;3.40;;;;;;;;;;5049942;28;20649;-61
2021/12/30 07:21:40;;;;;;;4.03;2.93;;;;;;;;;;5062850;28;20177;-61
2021/12/30 07:24:10;;;;;;;3.37;3.07;;;;;;;;;;5051388;28;20184;-61
2021/12/30 07:26:37;;;;;;;3.57;2.97;;;;;;;;;;5046086;28;20705;-61
2021/12/30 07:29:04;;;;;;;3.50;3.20;;;;;;;;;;5050418;28;20648;-61
2021/12/30 07:31:34;;;;;;;3.40;3.10;;;;;;;;;;5050191;28;20211;-61
2021/12/30 07:34:00;;;;;;;3.47;3.13;;;;;;;;;;5064233;28;20263;-62
2021/12/30 07:36:30;;;;;;;3.33;3.03;;;;;;;;;;5050064;28;20214;-61
2021/12/30 07:38:56;;;;;;;3.23;2.93;;;;;;;;;;5047057;28;20549;-61
2021/12/30 07:41:22;;;;;;;4.10;3.10;;;;;;;;;;5049450;28;20188;-62
2021/12/30 07:43:52;;;;;;;3.93;2.80;;;;;;;;;;5050304;28;20192;-61
2021/12/30 07:46:18;;;;;;;4.23;2.97;;;;;;;;;;5064318;28;20279;-61
2021/12/30 07:48:45;;;;;;;4.70;3.10;;;;;;;;;;5068355;28;20554;-61
2021/12/30 07:51:11;;;;;;;4.13;3.17;;;;;;;;;;5068374;28;20188;-61
2021/12/30 07:53:37;;;;;;;2.97;2.67;;;;;;;;;;5055215;28;20277;-61
2021/12/30 07:56:04;;;;;;;4.00;3.33;;;;;;;;;;5071364;28;20205;-61
2021/12/30 07:58:30;;;;;;;3.37;3.00;;;;;;;;;;5075413;28;20191;-61
2021/12/30 08:01:00;;;;;;;3.20;2.87;;;;;;;;;;5050650;28;20173;-62
2021/12/30 08:03:26;;;;;;;3.17;2.83;;;;;;;;;;5063988;28;20204;-61
2021/12/30 08:05:54;;;;;;;3.33;2.93;;;;;;;;;;5067853;28;20188;-60
2021/12/30 08:08:20;;;;;;;3.93;2.80;;;;;;;;;;5056309;28;20188;-60
2021/12/30 08:10:46;;;;;;;4.13;2.80;;;;;;;;;;5063092;28;20196;-61
2021/12/30 08:13:12;;;;;;;3.07;2.77;;;;;;;;;;5050703;28;20899;-61
2021/12/30 08:15:39;;;;;;;3.27;2.97;;;;;;;;;;5068679;28;20181;-60
2021/12/30 08:18:06;;;;;;;3.30;3.00;;;;;;;;;;5050381;28;20259;-60
2021/12/30 08:20:32;;;;;;;3.23;2.97;;;;;;;;;;5050932;28;20276;-60
2021/12/30 08:22:58;;;;;;;3.90;3.10;;;;;;;;;;5051420;28;20238;-60
2021/12/30 08:25:25;;;;;;;4.80;2.97;;;;;;;;;;5068728;28;20180;-60
2021/12/30 08:27:51;;;;;;;3.13;2.83;;;;;;;;;;5049899;28;20738;-60
2021/12/30 08:30:20;;;;;;;2.90;2.60;;;;;;;;;;5053984;28;21032;-60
2021/12/30 08:32:46;;;;;;;4.53;3.17;;;;;;;;;;5052253;28;20584;-60
2021/12/30 08:35:14;;;;;;;2.97;2.77;;;;;;;;;;5068078;28;20779;-60
2021/12/30 08:37:41;;;;;;;6.40;2.83;;;;;;;;;;5065001;28;20649;-60
2021/12/30 08:40:08;;;;;;;2.83;2.63;;;;;;;;;;5064210;28;20180;-60
2021/12/30 08:42:34;;;;;;;3.63;2.30;;;;;;;;;;5036916;28;20306;-60
2021/12/30 08:45:01;;;;;;;3.80;2.87;;;;;;;;;;5049641;28;20187;-60
2021/12/30 08:47:28;;;;;;;3.40;2.87;;;;;;;;;;5065978;28;20620;-60
2021/12/30 08:49:55;;;;;;;3.03;2.60;;;;;;;;;;5060971;28;20547;-61
2021/12/30 08:52:26;;;;;;;3.13;2.83;;;;;;;;;;5062894;28;20223;-60
2021/12/30 08:54:52;;;;;;;3.67;3.20;;;;;;;;;;5066058;28;20168;-60
2021/12/30 08:57:20;;;;;;;3.10;2.70;;;;;;;;;;5047185;28;20695;-60
2021/12/30 08:59:46;;;;;;;3.33;3.03;;;;;;;;;;5036250;28;20180;-60
2021/12/30 09:02:13;;;;;;;2.87;2.67;;;;;;;;;;5063160;28;20231;-61
2021/12/30 09:04:42;;;;;;;4.17;2.90;;;;;;;;;;5060741;28;20216;-60
2021/12/30 09:07:09;;;;;;;3.20;2.90;;;;;;;;;;5029946;28;20176;-61
2021/12/30 09:09:35;;;;;;;5.20;3.57;;;;;;;;;;5032354;28;20191;-60
2021/12/30 09:12:01;;;;;;;3.40;3.10;;;;;;;;;;5045938;28;20235;-60
2021/12/30 09:14:28;;;;;;;3.43;3.10;;;;;;;;;;5061452;28;20242;-60
2021/12/30 09:16:54;;;;;;;3.53;3.23;;;;;;;;;;5064734;28;20191;-61
2021/12/30 09:19:21;;;;;;;3.50;2.63;;;;;;;;;;5045852;28;20246;-61
2021/12/30 09:21:47;;;;;;;4.20;3.00;;;;;;;;;;5064000;28;20180;-60
2021/12/30 09:24:13;;;;;;;3.43;3.13;;;;;;;;;;5059511;28;20179;-61
2021/12/30 09:26:40;;;;;;;3.33;2.97;;;;;;;;;;5064525;28;20180;-61
2021/12/30 09:29:10;;;;;;;3.43;3.10;;;;;;;;;;5039049;28;20177;-62
2021/12/30 09:31:44;;;;;;;3.37;3.07;;;;;;;;;;5065879;28;20168;-61
2021/12/30 09:34:11;;;;;;;3.73;2.97;;;;;;;;;;5041744;28;20434;-61
2021/12/30 09:36:37;;;;;;;3.77;3.47;;;;;;;;;;5047562;28;20176;-61
2021/12/30 09:39:05;;;;;;;3.73;3.43;;;;;;;;;;5047984;28;20210;-62
2021/12/30 09:41:31;;;;;;;3.77;2.97;;;;;;;;;;5065636;28;20238;-62
2021/12/30 09:43:58;;;;;;;5.83;3.83;;;;;;;;;;5064459;28;20271;-62
2021/12/30 09:46:28;;;;;;;4.77;2.73;;;;;;;;;;5043994;28;20184;-61
2021/12/30 09:48:54;;;;;;;2.90;2.70;;;;;;;;;;5048668;28;20177;-61
2021/12/30 09:51:21;;;;;;;3.37;3.07;;;;;;;;;;5047875;28;20463;-61
2021/12/30 09:53:50;;;;;;;3.03;2.73;;;;;;;;;;5081513;28;20211;-60
2021/12/30 09:56:16;;;;;;;4.70;2.90;;;;;;;;;;5066255;28;20282;-60
2021/12/30 09:58:43;;;;;;;3.93;2.70;;;;;;;;;;5065308;28;20176;-61
2021/12/30 10:01:09;;;;;;;2.43;2.23;;;;;;;;;;5080642;28;20214;-58
2021/12/30 10:03:36;;;;;;;2.77;2.53;;;;;;;;;;5080797;28;20186;-59
2021/12/30 10:06:07;;;;;;;3.30;3.00;;;;;;;;;;5062015;28;20183;-60
2021/12/30 10:08:41;;;;;;;3.00;2.70;;;;;;;;;;5044594;28;20267;-59
2021/12/30 10:11:12;;;;;;;2.30;2.10;;;;;;;;;;5054542;28;20704;-59
2021/12/30 10:13:41;;;;;;;3.00;2.70;;;;;;;;;;5089100;28;20988;-61
2021/12/30 10:16:12;;;;;;;2.60;2.40;;;;;;;;;;5067975;28;20372;-62
2021/12/30 10:18:53;;;;;;;2.13;1.93;;;;;;;;;;5065068;28;20172;-64
2021/12/30 10:21:21;;;;;;;2.10;1.90;;;;;;;;;;5071513;28;20179;-62
2021/12/30 10:23:57;;;;;;;2.30;2.10;;;;;;;;;;5089438;28;20229;-61
2021/12/30 10:26:27;;;;;;;2.00;1.90;;;;;;;;;;5071285;28;20183;-61
2021/12/30 10:28:58;;;;;;;2.10;1.90;;;;;;;;;;5088258;28;20179;-63
2021/12/30 10:31:29;;;;;;;2.17;1.97;;;;;;;;;;5061354;28;20184;-64
2021/12/30 10:34:04;;;;;;;2.40;2.20;;;;;;;;;;5073836;28;20605;-63
2021/12/30 10:36:41;;;;;;;2.10;1.70;;;;;;;;;;5054678;28;20290;-62
2021/12/30 10:39:34;;;;;;;2.13;1.93;;;;;;;;;;5084572;28;20265;-62
2021/12/30 10:42:06;;;;;;;2.07;1.87;;;;;;;;;;5048842;28;20567;-63
2021/12/30 10:44:49;;;;;;;2.10;1.50;;;;;;;;;;5070918;28;20204;-62
2021/12/30 10:47:15;;;;;;;2.23;1.70;;;;;;;;;;5064608;28;20222;-62
2021/12/30 10:49:42;;;;;;;2.87;1.63;;;;;;;;;;5081123;28;20204;-59
2021/12/30 10:52:11;;;;;;;1.77;1.67;;;;;;;;;;5083066;28;20228;-57
2021/12/30 10:54:39;;;;;;;1.83;1.70;;;;;;;;;;5071923;28;20153;-57
2021/12/30 10:57:09;;;;;;;5.27;2.10;;;;;;;;;;5058529;28;20326;-57
2021/12/30 10:59:36;;;;;;;4.50;1.80;;;;;;;;;;5046450;28;20188;-57
2021/12/30 11:02:04;;;;;;;4.43;2.00;;;;;;;;;;5068778;28;20215;-57
2021/12/30 11:04:32;;;;;;;5.37;1.80;;;;;;;;;;5046533;28;20551;-60
2021/12/30 11:06:59;;;;;;;3.30;1.73;;;;;;;;;;5070993;28;20216;-60
2021/12/30 11:09:25;;;;;;;3.50;1.97;;;;;;;;;;5052744;28;20193;-59
2021/12/30 11:11:51;;;;;;;2.50;1.90;;;;;;;;;;5052437;28;20602;-59
2021/12/30 11:14:19;;;;;;;2.23;1.97;;;;;;;;;;5070372;28;20170;-59
2021/12/30 11:16:59;;;;;;;1.90;1.67;;;;;;;;;;5069693;28;20469;-59
2021/12/30 11:19:26;;;;;;;1.93;1.80;;;;;;;;;;5070377;28;20168;-59
2021/12/30 11:21:58;;;;;;;2.13;1.77;;;;;;;;;;5069892;28;20257;-60
2021/12/30 11:24:24;;;;;;;3.60;2.15;;;;;;;;;;5062344;28;20765;-59
2021/12/30 11:26:51;;;;;;;2.90;2.30;;;;;;;;;;5051173;28;20379;-60
2021/12/30 11:29:18;;;;;;;2.27;1.83;;;;;;;;;;5070535;28;20509;-59
2021/12/30 11:31:44;;;;;;;2.33;2.10;;;;;;;;;;5050731;28;20179;-60
2021/12/30 11:34:10;;;;;;;2.87;2.40;;;;;;;;;;5069225;28;20559;-59
2021/12/30 11:36:36;;;;;;;2.77;2.03;;;;;;;;;;5051834;28;20218;-58
2021/12/30 11:39:14;;;;;;;2.17;1.93;;;;;;;;;;5069842;28;20647;-59
2021/12/30 11:41:41;;;;;;;2.10;1.90;;;;;;;;;;5069750;28;20168;-59
2021/12/30 11:44:07;;;;;;;2.97;2.50;;;;;;;;;;5051865;28;20678;-59
2021/12/30 11:46:37;;;;;;;6.93;2.80;;;;;;;;;;5069035;28;20513;-59
2021/12/30 11:49:05;;;;;;;3.40;2.60;;;;;;;;;;5069722;28;20639;-59
2021/12/30 11:52:07;;;;;;;3.17;2.20;;;;;;;;;;5069645;28;20318;-59
2021/12/30 11:54:33;;;;;;;3.60;2.37;;;;;;;;;;4963046;28;20712;-58
2021/12/30 11:57:21;;;;;;;2.57;2.23;;;;;;;;;;5046202;28;20204;-59
2021/12/30 11:59:47;;;;;;;2.83;2.53;;;;;;;;;;5057114;28;20188;-59
2021/12/30 12:02:46;;;;;;;3.17;2.57;;;;;;;;;;5060825;28;20168;-59
2021/12/30 12:05:31;;;;;;;6.97;2.90;;;;;;;;;;5016724;28;20252;-59
2021/12/30 12:08:05;;;;;;;6.13;3.17;;;;;;;;;;5053662;28;20283;-59
2021/12/30 12:10:31;;;;;;;3.73;2.70;;;;;;;;;;5044105;28;20224;-59
2021/12/30 12:12:58;;;;;;;3.77;2.70;;;;;;;;;;5050764;28;20208;-59
2021/12/30 12:15:42;;;;;;;4.63;3.00;;;;;;;;;;5050759;28;20184;-59
2021/12/30 12:18:13;;;;;;;3.50;2.70;;;;;;;;;;5050752;28;20670;-59
2021/12/30 12:20:50;;;;;;;4.17;2.80;;;;;;;;;;5050876;28;20643;-59
2021/12/30 12:23:35;;;;;;;4.40;2.73;;;;;;;;;;5065214;28;20659;-59
2021/12/30 12:26:06;;;;;;;4.10;3.17;;;;;;;;;;5067552;28;20669;-59
2021/12/30 12:28:32;;;;;;;4.53;2.97;;;;;;;;;;5051602;28;20691;-59
2021/12/30 12:30:59;;;;;;;4.60;2.90;;;;;;;;;;5049674;28;20180;-59
2021/12/30 12:33:32;;;;;;;4.90;3.33;;;;;;;;;;5047856;28;20304;-59
2021/12/30 12:35:59;;;;;;;6.43;3.43;;;;;;;;;;5048381;28;20174;-58
2021/12/30 12:38:46;;;;;;;6.20;3.20;;;;;;;;;;5070740;28;20181;-58
2021/12/30 12:41:21;;;;;;;5.53;3.47;;;;;;;;;;5050336;28;20176;-59
2021/12/30 12:43:52;;;;;;;4.30;3.07;;;;;;;;;;5056844;28;20192;-58
2021/12/30 12:46:36;;;;;;;4.47;3.80;;;;;;;;;;5068251;28;20643;-58
2021/12/30 12:49:06;;;;;;;3.50;2.80;;;;;;;;;;5068092;28;20558;-58
2021/12/30 12:51:33;;;;;;;3.73;2.77;;;;;;;;;;5032261;28;20417;-58
2021/12/30 12:54:03;;;;;;;6.00;3.57;;;;;;;;;;5064424;28;20300;-58
2021/12/30 12:56:39;;;;;;;4.63;3.23;;;;;;;;;;5088233;28;20192;-59
2021/12/30 12:59:07;;;;;;;3.97;3.37;;;;;;;;;;5067356;28;20206;-58
2021/12/30 13:01:37;;;;;;;3.40;2.80;;;;;;;;;;5074728;28;20542;-58
2021/12/30 13:04:04;;;;;;;3.63;3.23;;;;;;;;;;5068652;28;20212;-58
2021/12/30 13:06:30;;;;;;;5.07;3.93;;;;;;;;;;5088053;28;20207;-58
2021/12/30 13:09:02;;;;;;;7.87;3.90;;;;;;;;;;5087369;28;20167;-58
2021/12/30 13:11:35;;;;;;;12.43;3.63;;;;;;;;;;5064299;28;20184;-58
2021/12/30 13:14:02;;;;;;;12.00;4.13;;;;;;;;;;5069857;28;20618;-59
2021/12/30 13:16:30;;;;;;;5.77;3.53;;;;;;;;;;5067498;28;20198;-59
2021/12/30 13:19:29;;;;;;;6.87;3.73;;;;;;;;;;5088100;28;20491;-59
2021/12/30 13:22:03;;;;;;;7.97;3.60;;;;;;;;;;5016490;28;20187;-59
2021/12/30 13:24:32;;;;;;;5.50;3.27;;;;;;;;;;5086975;28;20176;-59
2021/12/30 13:26:59;;;;;;;5.07;3.13;;;;;;;;;;5078151;28;20241;-59
2021/12/30 13:29:27;;;;;;;6.57;3.40;;;;;;;;;;5065373;28;20636;-59
2021/12/30 13:32:03;;;;;;;9.67;3.60;;;;;;;;;;5049423;28;20639;-59
2021/12/30 13:34:30;;;;;;;5.90;3.33;;;;;;;;;;5068599;28;20167;-59
2021/12/30 13:37:17;;;;;;;4.93;3.33;;;;;;;;;;5069318;28;20182;-59
2021/12/30 13:39:44;;;;;;;6.77;3.40;;;;;;;;;;5085799;28;20602;-59
2021/12/30 13:42:15;;;;;;;6.20;3.17;;;;;;;;;;5065541;28;20168;-59
2021/12/30 13:44:49;;;;;;;3.20;2.97;;;;;;;;;;5086222;28;20646;-59
2021/12/30 13:47:35;;;;;;;3.60;3.23;;;;;;;;;;5067127;28;20703;-59
2021/12/30 13:50:04;;;;;;;3.43;3.07;;;;;;;;;;5069785;28;20168;-59
2021/12/30 13:52:36;;;;;;;3.57;3.23;;;;;;;;;;5059262;28;20224;-59
2021/12/30 13:55:09;;;;;;;4.50;3.40;;;;;;;;;;5039906;28;20230;-59
2021/12/30 13:57:35;;;;;;;5.37;3.27;;;;;;;;;;5046617;28;20667;-59
2021/12/30 14:00:01;;;;;;;6.73;3.37;;;;;;;;;;5049938;28;20554;-59
2021/12/30 14:02:28;;;;;;;3.97;3.50;;;;;;;;;;5048792;28;20184;-59
2021/12/30 14:05:06;;;;;;;4.00;3.23;;;;;;;;;;5046248;28;20185;-59
2021/12/30 14:07:37;;;;;;;4.10;2.87;;;;;;;;;;5047209;28;20192;-59
2021/12/30 14:10:05;;;;;;;4.40;3.20;;;;;;;;;;5061005;28;20220;-58
2021/12/30 14:12:32;;;;;;;3.63;3.03;;;;;;;;;;5046230;28;20214;-58
2021/12/30 14:15:13;;;;;;;5.73;3.10;;;;;;;;;;5057908;28;20188;-59
2021/12/30 14:17:42;;;;;;;6.83;3.20;;;;;;;;;;5042563;28;20226;-58
2021/12/30 14:20:12;;;;;;;3.77;3.47;;;;;;;;;;5047427;28;20183;-58
2021/12/30 14:22:40;;;;;;;9.23;2.93;;;;;;;;;;5054154;28;20184;-58
2021/12/30 14:25:24;;;;;;;5.80;3.90;;;;;;;;;;5062766;28;20172;-58
2021/12/30 14:27:50;;;;;;;3.63;3.20;;;;;;;;;;5064411;28;20265;-58
2021/12/30 14:30:17;;;;;;;5.00;3.93;;;;;;;;;;5064610;28;20188;-59
2021/12/30 14:32:43;;;;;;;5.43;3.37;;;;;;;;;;5059370;28;20668;-58
2021/12/30 14:35:09;;;;;;;4.67;3.00;;;;;;;;;;5065196;28;20246;-58
2021/12/30 14:37:39;;;;;;;3.23;2.93;;;;;;;;;;5064759;28;20644;-58
2021/12/30 14:40:05;;;;;;;8.13;3.30;;;;;;;;;;5065281;28;20578;-58
2021/12/30 14:42:33;;;;;;;4.37;2.73;;;;;;;;;;5065170;28;20259;-58
2021/12/30 14:44:59;;;;;;;4.00;2.83;;;;;;;;;;5065408;28;20223;-58
2021/12/30 14:47:26;;;;;;;3.27;2.80;;;;;;;;;;5062761;28;20695;-58
2021/12/30 14:50:04;;;;;;;3.97;3.30;;;;;;;;;;5047935;28;20205;-58